Time;durP1;ratioP1;P1;durP2;ratioP2;P2;SDS_P1;SDS_P2;PMS_P1;PMS_P2;Temp;Humidity;BMP_temperature;BMP_pressure;BME280_temperature;BME280_humidity;BME280_pressure;Samples;Min_cycle;Max_cycle;Signal;HPM_P1;HPM_P2
2022/01/14 00:00:43;;;;;;;51.30;24.08;;;5.80;99.90;;;;;;5118062;28;20047;-66
2022/01/14 00:03:10;;;;;;;56.60;24.90;;;6.10;99.90;;;;;;5125900;28;20044;-66
2022/01/14 00:05:36;;;;;;;53.67;25.77;;;6.00;99.90;;;;;;5114239;28;20108;-66
2022/01/14 00:08:02;;;;;;;54.10;25.50;;;6.10;99.90;;;;;;5115283;28;20048;-66
2022/01/14 00:10:30;;;;;;;51.20;24.08;;;6.00;99.90;;;;;;5118547;28;20039;-66
2022/01/14 00:13:05;;;;;;;52.45;25.15;;;6.00;99.90;;;;;;5119124;28;20090;-66
2022/01/14 00:15:34;;;;;;;46.85;24.70;;;6.20;99.90;;;;;;5158660;27;20078;-66
2022/01/14 00:18:01;;;;;;;50.08;24.38;;;6.20;99.90;;;;;;5115422;28;20067;-66
2022/01/14 00:20:28;;;;;;;46.13;21.92;;;6.20;99.90;;;;;;5119258;27;20040;-66
2022/01/14 00:22:54;;;;;;;49.03;24.02;;;6.10;99.90;;;;;;5147973;27;20131;-66
2022/01/14 00:33:27;;;;;;;50.17;23.00;;;6.10;99.90;;;;;;5122239;28;20063;-66
2022/01/14 00:35:54;;;;;;;37.45;20.45;;;6.30;99.90;;;;;;5124312;28;20040;-66
2022/01/14 00:38:20;;;;;;;44.72;22.27;;;6.20;99.90;;;;;;5111582;28;20044;-66
2022/01/14 00:40:46;;;;;;;36.53;19.75;;;6.20;99.90;;;;;;5112594;28;20119;-66
2022/01/14 00:43:13;;;;;;;36.80;19.45;;;6.20;99.90;;;;;;5124787;28;20054;-66
2022/01/14 00:45:40;;;;;;;33.35;19.35;;;6.10;99.90;;;;;;5113122;28;20035;-66
2022/01/14 00:48:06;;;;;;;43.58;21.27;;;6.30;99.90;;;;;;5123095;28;20048;-66
2022/01/14 00:50:33;;;;;;;33.03;18.15;;;6.20;99.90;;;;;;5120425;28;20056;-66
2022/01/14 00:53:00;;;;;;;35.47;20.42;;;6.20;99.90;;;;;;5114068;28;20040;-66
2022/01/14 00:55:40;;;;;;;38.30;18.50;;;6.00;99.90;;;;;;5115212;28;20048;-66
2022/01/14 01:00:50;;;;;;;35.17;19.42;;;6.00;99.90;;;;;;5117630;28;20047;-66
2022/01/14 01:03:16;;;;;;;38.35;19.83;;;6.10;99.90;;;;;;5111334;28;20040;-66
2022/01/14 01:05:41;;;;;;;39.60;18.85;;;6.20;99.90;;;;;;5124962;28;20036;-66
2022/01/14 01:08:11;;;;;;;42.03;19.98;;;6.10;99.90;;;;;;5120115;28;20046;-66
2022/01/14 01:10:48;;;;;;;34.67;19.67;;;6.00;99.90;;;;;;5122765;28;20040;-66
2022/01/14 01:13:46;;;;;;;34.97;18.98;;;6.00;99.90;;;;;;5109967;28;20099;-66
2022/01/14 01:16:04;;;;;;;39.45;19.95;;;6.20;99.90;;;;;;5145111;27;20044;-66
2022/01/14 01:18:29;;;;;;;45.47;20.98;;;6.00;99.90;;;;;;5117034;28;20043;-66
2022/01/14 01:20:55;;;;;;;38.35;21.00;;;6.20;99.90;;;;;;5112768;28;20381;-66
2022/01/14 01:23:21;;;;;;;37.85;20.35;;;6.00;99.90;;;;;;5116463;28;20039;-65
2022/01/14 01:25:53;;;;;;;43.45;20.75;;;6.00;99.90;;;;;;5115177;28;20051;-65
2022/01/14 01:28:19;;;;;;;40.75;20.80;;;6.20;99.90;;;;;;5112371;28;20109;-65
2022/01/14 01:30:50;;;;;;;40.65;20.67;;;6.00;99.90;;;;;;5110207;28;20045;-65
2022/01/14 01:33:17;;;;;;;32.22;19.48;;;6.10;99.90;;;;;;5114645;28;20043;-65
2022/01/14 01:35:43;;;;;;;37.45;18.08;;;6.10;99.90;;;;;;5117063;28;20074;-66
2022/01/14 01:38:15;;;;;;;37.88;20.33;;;6.00;99.90;;;;;;5114331;28;20074;-66
2022/01/14 01:40:43;;;;;;;41.80;20.38;;;6.00;99.90;;;;;;5121510;28;20042;-66
2022/01/14 01:43:10;;;;;;;42.47;20.60;;;6.10;99.90;;;;;;5129003;28;20123;-66
2022/01/14 01:45:36;;;;;;;41.63;21.80;;;6.00;99.90;;;;;;5111946;28;20055;-66
2022/01/14 01:48:02;;;;;;;39.03;20.23;;;6.20;99.90;;;;;;5151703;27;20491;-66
2022/01/14 01:50:31;;;;;;;40.75;20.15;;;6.10;99.90;;;;;;5125066;28;20044;-66
2022/01/14 01:52:57;;;;;;;43.25;22.35;;;6.10;99.90;;;;;;5114372;28;20043;-65
2022/01/14 01:55:23;;;;;;;38.95;20.13;;;6.20;99.90;;;;;;5114896;27;20044;-66
2022/01/14 01:57:53;;;;;;;33.95;21.38;;;6.20;99.90;;;;;;5120300;28;20047;-66
2022/01/14 02:00:24;;;;;;;40.22;21.52;;;6.10;99.90;;;;;;5120278;28;20036;-66
2022/01/14 02:02:50;;;;;;;39.25;21.10;;;6.20;99.90;;;;;;5147715;27;20143;-66
2022/01/14 02:05:16;;;;;;;39.58;21.33;;;6.20;99.90;;;;;;5115244;27;20119;-66
2022/01/14 02:07:43;;;;;;;39.13;21.98;;;5.90;99.90;;;;;;5159981;27;20051;-66
2022/01/14 02:10:09;;;;;;;40.75;21.88;;;5.90;99.90;;;;;;5120335;28;20059;-66
2022/01/14 02:12:47;;;;;;;45.30;22.65;;;6.10;99.90;;;;;;5122328;28;20399;-66
2022/01/14 02:18:23;;;;;;;41.75;22.48;;;5.90;99.90;;;;;;5123069;28;20043;-66
2022/01/14 02:23:27;;;;;;;46.58;22.85;;;5.90;99.90;;;;;;5110430;28;20081;-66
2022/01/14 02:25:52;;;;;;;39.20;21.45;;;6.00;99.90;;;;;;5119895;27;20052;-66
2022/01/14 02:28:20;;;;;;;43.72;22.50;;;6.00;99.90;;;;;;5114544;28;20075;-66
2022/01/14 02:30:48;;;;;;;37.47;21.17;;;6.00;99.90;;;;;;5127423;28;20058;-66
2022/01/14 02:33:16;;;;;;;40.42;21.30;;;6.00;99.90;;;;;;5127798;28;20039;-66
2022/01/14 02:35:45;;;;;;;43.78;21.90;;;6.00;99.90;;;;;;5127403;28;20818;-66
2022/01/14 02:38:13;;;;;;;42.28;21.27;;;5.90;99.90;;;;;;5119902;28;20038;-66
2022/01/14 02:40:40;;;;;;;36.15;20.45;;;6.10;99.90;;;;;;5114993;28;20043;-66
2022/01/14 02:43:12;;;;;;;34.08;19.05;;;6.10;99.90;;;;;;5112469;27;20048;-66
2022/01/14 02:45:38;;;;;;;41.38;19.70;;;6.10;99.90;;;;;;5153178;27;20058;-66
2022/01/14 02:48:05;;;;;;;43.85;22.25;;;6.10;99.90;;;;;;5121198;28;20044;-66
2022/01/14 02:50:42;;;;;;;36.08;21.10;;;6.10;99.90;;;;;;5122508;28;20476;-66
2022/01/14 02:56:02;;;;;;;40.03;19.77;;;6.00;99.90;;;;;;5064270;28;20584;-66
2022/01/14 02:58:31;;;;;;;36.85;20.85;;;6.20;99.90;;;;;;5064324;28;20049;-66
2022/01/14 03:01:03;;;;;;;40.38;20.95;;;6.00;99.90;;;;;;5047352;28;20084;-66
2022/01/14 03:03:32;;;;;;;39.35;22.02;;;6.20;99.90;;;;;;5045297;28;20069;-66
2022/01/14 03:06:01;;;;;;;39.15;21.02;;;6.00;99.90;;;;;;5064243;28;20539;-66
2022/01/14 03:08:27;;;;;;;41.03;21.60;;;6.00;99.90;;;;;;5063782;28;20045;-66
2022/01/14 03:11:05;;;;;;;38.08;21.83;;;6.00;99.90;;;;;;5047652;28;20060;-66
2022/01/14 03:13:30;;;;;;;47.80;21.75;;;6.00;99.90;;;;;;5046796;28;20109;-66
2022/01/14 03:15:57;;;;;;;44.60;22.45;;;6.00;99.90;;;;;;5047602;28;20068;-66
2022/01/14 03:18:33;;;;;;;45.00;23.52;;;6.10;99.90;;;;;;5064083;28;20045;-66
2022/01/14 03:21:12;;;;;;;42.70;22.00;;;6.30;99.90;;;;;;5047126;28;20164;-66
2022/01/14 03:23:48;;;;;;;43.70;22.88;;;6.10;99.90;;;;;;5064246;28;20060;-66
2022/01/14 03:26:16;;;;;;;45.42;22.17;;;6.10;99.90;;;;;;5063459;28;20053;-66
2022/01/14 03:28:42;;;;;;;46.53;23.00;;;6.30;99.90;;;;;;5063557;28;20045;-66
2022/01/14 03:31:09;;;;;;;40.38;21.88;;;6.10;99.90;;;;;;5046631;28;20053;-66
2022/01/14 03:33:35;;;;;;;46.03;23.08;;;6.10;99.90;;;;;;5097381;28;20063;-66
2022/01/14 03:36:03;;;;;;;44.08;22.75;;;6.20;99.90;;;;;;5121627;27;20495;-66
2022/01/14 03:38:29;;;;;;;42.63;21.77;;;6.20;99.90;;;;;;5108551;28;20046;-66
2022/01/14 03:40:54;;;;;;;40.80;23.23;;;6.20;99.90;;;;;;5123659;27;20078;-66
2022/01/14 03:43:20;;;;;;;44.83;24.13;;;6.00;99.90;;;;;;5126599;28;20040;-66
2022/01/14 03:45:49;;;;;;;45.55;23.63;;;6.00;99.90;;;;;;5111279;28;20126;-66
2022/01/14 03:48:14;;;;;;;47.25;24.15;;;6.20;99.90;;;;;;5108084;28;20043;-66
2022/01/14 03:50:41;;;;;;;51.67;24.17;;;6.20;99.90;;;;;;5125515;28;20099;-66
2022/01/14 03:53:07;;;;;;;49.90;25.55;;;6.20;99.90;;;;;;5125846;28;20054;-66
2022/01/14 03:55:33;;;;;;;47.17;24.00;;;6.00;99.90;;;;;;5126065;28;20048;-66
2022/01/14 03:57:59;;;;;;;50.10;24.73;;;6.10;99.90;;;;;;5126052;28;20036;-66
2022/01/14 04:00:25;;;;;;;50.25;24.35;;;6.20;99.90;;;;;;5106237;28;20047;-66
2022/01/14 04:02:51;;;;;;;49.08;24.60;;;6.10;99.90;;;;;;5125716;28;20122;-66
2022/01/14 04:05:17;;;;;;;50.03;25.33;;;6.20;99.90;;;;;;5105528;28;20055;-66
2022/01/14 04:07:43;;;;;;;48.38;26.15;;;6.20;99.90;;;;;;5125684;28;20108;-66
2022/01/14 04:10:12;;;;;;;56.10;26.65;;;6.20;99.90;;;;;;5125279;28;20135;-66
2022/01/14 04:18:18;;;;;;;62.00;29.58;;;6.00;99.90;;;;;;5037149;28;20049;-66
2022/01/14 04:20:50;;;;;;;57.50;28.65;;;6.10;99.90;;;;;;5061292;28;20436;-66
2022/01/14 04:23:18;;;;;;;61.78;30.25;;;6.10;99.90;;;;;;5072909;28;20132;-66
2022/01/14 04:25:47;;;;;;;57.30;29.25;;;6.10;99.90;;;;;;5055299;28;20552;-66
2022/01/14 04:28:13;;;;;;;51.88;28.50;;;6.00;99.90;;;;;;5057671;28;20092;-66
2022/01/14 04:30:39;;;;;;;53.67;28.10;;;6.10;99.90;;;;;;5064291;28;20053;-66
2022/01/14 04:33:05;;;;;;;52.50;29.15;;;5.90;99.90;;;;;;5077121;28;20088;-66
2022/01/14 04:35:33;;;;;;;54.78;28.50;;;6.10;99.90;;;;;;5059849;28;20057;-66
2022/01/14 04:37:59;;;;;;;59.00;31.50;;;5.90;99.90;;;;;;5063236;28;20059;-66
2022/01/14 04:40:25;;;;;;;55.88;28.40;;;5.90;99.90;;;;;;5075653;28;20045;-65
2022/01/14 04:42:52;;;;;;;54.38;28.17;;;5.90;99.90;;;;;;5065561;28;20076;-66
2022/01/14 04:45:29;;;;;;;57.25;28.17;;;5.90;99.90;;;;;;5025981;28;20136;-66
2022/01/14 04:47:56;;;;;;;54.72;28.38;;;5.90;99.90;;;;;;5057658;28;20045;-66
2022/01/14 04:50:23;;;;;;;57.63;29.58;;;6.00;99.90;;;;;;5106015;28;20126;-66
2022/01/14 04:52:49;;;;;;;61.42;29.80;;;6.00;99.90;;;;;;5106164;28;20054;-66
2022/01/14 04:55:18;;;;;;;61.28;29.05;;;5.90;99.90;;;;;;5125205;28;20035;-66
2022/01/14 04:57:45;;;;;;;63.72;28.75;;;5.90;99.90;;;;;;5125176;28;20035;-66
2022/01/14 05:00:14;;;;;;;53.22;26.67;;;5.80;99.90;;;;;;5124459;28;20110;-66
2022/01/14 05:02:40;;;;;;;58.03;28.50;;;5.90;99.90;;;;;;5140479;27;20058;-66
2022/01/14 05:05:08;;;;;;;58.50;28.77;;;5.90;99.90;;;;;;5106452;28;20047;-66
2022/01/14 05:07:34;;;;;;;55.90;28.73;;;6.00;99.90;;;;;;5124189;28;20396;-65
2022/01/14 05:12:34;;;;;;;58.05;27.92;;;6.00;99.90;;;;;;5126739;28;20054;-66
2022/01/14 05:15:02;;;;;;;56.05;27.33;;;6.00;99.90;;;;;;5110753;28;20134;-66
2022/01/14 05:17:27;;;;;;;54.90;26.90;;;6.00;99.90;;;;;;5107899;28;20051;-66
2022/01/14 05:19:54;;;;;;;51.20;27.60;;;5.80;99.90;;;;;;5129082;28;20047;-66
2022/01/14 05:22:21;;;;;;;58.88;27.52;;;5.80;99.90;;;;;;5110427;28;20086;-66
2022/01/14 05:24:47;;;;;;;57.78;28.05;;;5.70;99.90;;;;;;5129466;28;20093;-65
2022/01/14 05:27:13;;;;;;;55.90;28.75;;;5.90;99.90;;;;;;5109803;28;20502;-66
2022/01/14 05:29:39;;;;;;;59.05;28.95;;;5.80;99.90;;;;;;5110529;28;20054;-65
2022/01/14 05:32:09;;;;;;;64.90;29.60;;;5.90;99.90;;;;;;5109559;28;20905;-65
2022/01/14 05:34:35;;;;;;;;;;;5.70;99.90;;;;;;5129392;28;20078;-66
2022/01/14 05:37:03;;;;;;;55.80;28.90;;;5.80;99.90;;;;;;5143739;27;19926;-65
2022/01/14 05:39:30;;;;;;;60.55;28.50;;;5.80;99.90;;;;;;5128071;28;20059;-65
2022/01/14 05:41:57;;;;;;;57.85;29.40;;;5.70;99.90;;;;;;5129039;28;20048;-65
2022/01/14 05:44:23;;;;;;;55.58;29.05;;;5.70;99.90;;;;;;5110856;28;20042;-65
2022/01/14 05:46:50;;;;;;;51.22;28.50;;;5.80;99.90;;;;;;5110714;28;20042;-65
2022/01/14 05:49:19;;;;;;;57.70;28.73;;;5.80;99.90;;;;;;5110447;28;20108;-66
2022/01/14 05:51:46;;;;;;;60.38;29.02;;;5.80;99.90;;;;;;5128012;28;20042;-65
2022/01/14 05:54:16;;;;;;;57.75;28.52;;;5.70;99.90;;;;;;5109467;28;20111;-65
2022/01/14 05:56:42;;;;;;;;;;;5.70;99.90;;;;;;5106173;28;20048;-65
2022/01/14 05:59:07;;;;;;;58.63;28.55;;;5.80;99.90;;;;;;5129314;28;20004;-65
2022/01/14 06:01:33;;;;;;;54.90;27.85;;;5.70;99.90;;;;;;5128268;28;20116;-66
2022/01/14 06:04:01;;;;;;;57.17;27.33;;;5.80;99.90;;;;;;5127679;28;20053;-65
2022/01/14 06:06:27;;;;;;;55.17;29.20;;;5.70;99.90;;;;;;5128793;28;20073;-65
2022/01/14 06:08:52;;;;;;;55.28;29.15;;;5.60;99.90;;;;;;5108649;28;20518;-65
2022/01/14 06:11:19;;;;;;;52.25;28.00;;;5.70;99.90;;;;;;5109577;28;20035;-65
2022/01/14 06:13:45;;;;;;;52.60;28.92;;;5.70;99.90;;;;;;5132186;27;20046;-65
2022/01/14 06:16:11;;;;;;;54.42;29.50;;;5.70;99.90;;;;;;5108998;28;20047;-65
2022/01/14 06:18:37;;;;;;;51.63;28.20;;;5.60;99.90;;;;;;5126634;28;20051;-65
2022/01/14 06:21:04;;;;;;;46.83;26.25;;;5.80;99.90;;;;;;5115931;27;20479;-66
2022/01/14 06:23:30;;;;;;;45.63;26.48;;;5.80;99.90;;;;;;5122030;28;20039;-66
2022/01/14 06:25:56;;;;;;;54.80;28.20;;;5.80;99.90;;;;;;5104029;28;20135;-65
2022/01/14 06:28:22;;;;;;;54.03;27.52;;;5.80;99.90;;;;;;5126864;28;20031;-66
2022/01/14 06:30:48;;;;;;;47.42;26.50;;;5.80;99.90;;;;;;5125204;28;20054;-65
2022/01/14 06:33:14;;;;;;;50.58;26.92;;;5.70;99.90;;;;;;5106175;28;20039;-65
2022/01/14 06:35:40;;;;;;;45.20;26.15;;;5.80;99.90;;;;;;5124600;28;20075;-65
2022/01/14 06:38:05;;;;;;;42.00;25.23;;;5.70;99.90;;;;;;5123252;28;20055;-66
2022/01/14 06:40:32;;;;;;;52.03;26.35;;;5.80;99.90;;;;;;5123981;28;20047;-66
2022/01/14 06:42:58;;;;;;;50.92;26.70;;;5.80;99.90;;;;;;5138166;27;20043;-66
2022/01/14 06:45:24;;;;;;;43.38;26.05;;;5.70;99.90;;;;;;5124984;28;20041;-66
2022/01/14 06:47:50;;;;;;;49.55;26.80;;;5.80;99.90;;;;;;5124665;28;20046;-65
2022/01/14 06:50:17;;;;;;;51.17;26.45;;;5.90;99.90;;;;;;5140045;27;20047;-65
2022/01/14 06:52:43;;;;;;;45.20;25.80;;;5.70;99.90;;;;;;5123311;28;20047;-66
2022/01/14 06:55:09;;;;;;;49.20;25.13;;;5.70;99.90;;;;;;5126055;28;20031;-66
2022/01/14 06:57:38;;;;;;;48.22;24.70;;;5.80;99.90;;;;;;5127061;28;20040;-66
2022/01/14 07:00:10;;;;;;;48.22;26.45;;;5.70;99.90;;;;;;5127397;28;20107;-66
2022/01/14 07:02:36;;;;;;;44.28;25.25;;;5.70;99.90;;;;;;5105318;28;20041;-66
2022/01/14 07:05:03;;;;;;;45.47;26.50;;;5.70;99.90;;;;;;5125573;28;20042;-67
2022/01/14 07:07:29;;;;;;;49.65;27.90;;;5.60;99.90;;;;;;5108416;28;20044;-66
2022/01/14 07:09:58;;;;;;;48.55;25.95;;;5.60;99.90;;;;;;5125494;28;20047;-66
2022/01/14 07:12:35;;;;;;;48.33;27.35;;;5.80;99.90;;;;;;5088350;28;20043;-66
2022/01/14 07:15:01;;;;;;;48.92;26.42;;;5.70;99.90;;;;;;5122707;28;20112;-68
2022/01/14 07:17:28;;;;;;;47.85;25.52;;;5.70;99.90;;;;;;5125776;28;20051;-70
2022/01/14 07:19:57;;;;;;;46.10;25.98;;;5.70;99.90;;;;;;5140464;27;20047;-67
2022/01/14 07:22:23;;;;;;;49.80;26.37;;;5.60;99.90;;;;;;5107634;27;20166;-65
2022/01/14 07:24:49;;;;;;;45.90;26.65;;;5.60;99.90;;;;;;5106542;28;20443;-66
2022/01/14 07:27:15;;;;;;;48.45;25.88;;;5.70;99.90;;;;;;5120304;28;20074;-66
2022/01/14 07:29:42;;;;;;;51.33;27.10;;;5.90;99.90;;;;;;5107305;28;20067;-66
2022/01/14 07:32:08;;;;;;;48.53;26.60;;;5.90;99.90;;;;;;5124319;28;20054;-66
2022/01/14 07:34:35;;;;;;;43.92;25.77;;;5.80;99.90;;;;;;5105012;28;20051;-67
2022/01/14 07:37:01;;;;;;;48.75;25.65;;;5.80;99.90;;;;;;5120026;28;20055;-66
2022/01/14 07:39:27;;;;;;;44.45;25.67;;;5.80;99.90;;;;;;5122888;28;20095;-66
2022/01/14 07:41:54;;;;;;;43.40;24.85;;;5.70;99.90;;;;;;5107831;28;20082;-66
2022/01/14 07:44:20;;;;;;;47.53;25.33;;;5.80;99.90;;;;;;5107306;28;20507;-66
2022/01/14 07:46:47;;;;;;;49.80;25.10;;;5.70;99.90;;;;;;5080900;27;20048;-66
2022/01/14 07:49:14;;;;;;;46.67;23.90;;;5.80;99.90;;;;;;5109369;27;20067;-66
2022/01/14 07:51:40;;;;;;;42.40;23.85;;;5.70;99.90;;;;;;5116582;27;20059;-66
2022/01/14 07:54:05;;;;;;;41.08;24.13;;;5.70;99.90;;;;;;5118982;27;20035;-66
2022/01/14 07:56:45;;;;;;;44.70;25.20;;;5.90;99.90;;;;;;5113456;27;20150;-66
2022/01/14 07:59:13;;;;;;;43.70;24.73;;;5.80;99.90;;;;;;5104470;28;20039;-66
2022/01/14 08:01:39;;;;;;;39.80;23.35;;;5.80;99.90;;;;;;5116770;27;20040;-66
2022/01/14 08:04:05;;;;;;;43.03;23.98;;;5.80;99.90;;;;;;5125952;27;20051;-66
2022/01/14 08:06:33;;;;;;;48.08;24.48;;;5.70;99.90;;;;;;5116426;27;20051;-66
2022/01/14 08:08:59;;;;;;;38.78;22.52;;;5.80;99.90;;;;;;5092199;28;20047;-66
2022/01/14 08:11:25;;;;;;;41.92;21.70;;;6.00;99.90;;;;;;5097605;27;20043;-66
2022/01/14 08:13:51;;;;;;;41.25;21.85;;;6.00;99.90;;;;;;5107631;28;20675;-66
2022/01/14 08:16:16;;;;;;;35.38;21.95;;;5.80;99.90;;;;;;5107994;27;20142;-66
2022/01/14 08:18:42;;;;;;;46.22;22.05;;;6.00;99.90;;;;;;5130508;27;20095;-66
2022/01/14 08:21:08;;;;;;;38.70;21.67;;;5.90;99.90;;;;;;5113081;27;20044;-66
2022/01/14 08:23:34;;;;;;;41.28;20.90;;;6.10;99.90;;;;;;5102255;27;20051;-66
2022/01/14 08:25:59;;;;;;;38.35;20.23;;;6.10;99.90;;;;;;5083119;28;20062;-65
2022/01/14 08:28:26;;;;;;;37.22;20.67;;;6.10;99.90;;;;;;5106692;28;20042;-66
2022/01/14 08:30:51;;;;;;;35.75;20.67;;;6.00;99.90;;;;;;5087351;27;20104;-66
2022/01/14 08:33:18;;;;;;;35.33;19.55;;;6.20;99.90;;;;;;5111495;28;20081;-65
2022/01/14 08:35:46;;;;;;;38.15;19.58;;;6.10;99.90;;;;;;5095629;28;20048;-67
2022/01/14 08:38:12;;;;;;;47.22;20.70;;;6.10;99.90;;;;;;5114743;28;20051;-66
2022/01/14 08:40:38;;;;;;;36.28;20.10;;;6.20;99.90;;;;;;5096354;28;20143;-66
2022/01/14 08:43:04;;;;;;;38.67;18.65;;;6.30;99.90;;;;;;5104533;27;20047;-66
2022/01/14 08:45:30;;;;;;;34.92;19.52;;;6.30;99.90;;;;;;5096925;28;20104;-65
2022/01/14 08:47:56;;;;;;;32.05;18.13;;;6.30;99.90;;;;;;5105121;27;20074;-64
2022/01/14 08:50:28;;;;;;;39.97;19.45;;;6.30;99.90;;;;;;5115657;28;20058;-63
2022/01/14 08:52:55;;;;;;;32.60;19.17;;;6.30;99.90;;;;;;5118941;27;20054;-64
2022/01/14 08:55:22;;;;;;;40.30;18.00;;;6.30;99.90;;;;;;5134317;27;20072;-65
2022/01/14 08:57:49;;;;;;;32.65;19.50;;;6.20;99.90;;;;;;5120474;27;20047;-65
2022/01/14 09:00:16;;;;;;;33.53;18.23;;;6.20;99.90;;;;;;5095159;28;20092;-65
2022/01/14 09:02:42;;;;;;;39.33;18.08;;;6.40;99.90;;;;;;5103261;27;20055;-65
2022/01/14 09:05:09;;;;;;;38.05;18.35;;;6.30;99.90;;;;;;5100057;28;20062;-65
2022/01/14 09:07:35;;;;;;;35.28;17.30;;;6.50;99.90;;;;;;5114791;28;20110;-65
2022/01/14 09:10:01;;;;;;;29.23;17.67;;;6.40;99.90;;;;;;5115702;28;20054;-65
2022/01/14 09:12:26;;;;;;;33.38;17.67;;;6.30;99.90;;;;;;5133644;27;20054;-64
2022/01/14 09:14:52;;;;;;;28.50;16.92;;;6.40;99.90;;;;;;5121091;28;20039;-65
2022/01/14 09:17:18;;;;;;;27.17;17.30;;;6.50;99.90;;;;;;5115306;27;20053;-65
2022/01/14 09:19:44;;;;;;;35.58;16.48;;;6.50;99.90;;;;;;5115922;28;20044;-65
2022/01/14 09:22:15;;;;;;;38.35;16.90;;;6.60;99.90;;;;;;5103231;27;20061;-65
2022/01/14 09:24:42;;;;;;;28.38;14.93;;;6.50;99.90;;;;;;5122837;28;20048;-65
2022/01/14 09:27:08;;;;;;;27.67;15.88;;;6.70;99.90;;;;;;5126736;27;20059;-65
2022/01/14 09:29:34;;;;;;;30.10;15.52;;;6.60;99.90;;;;;;5121789;28;20053;-65
2022/01/14 09:32:00;;;;;;;23.58;14.82;;;6.60;99.90;;;;;;5114908;27;20062;-65
2022/01/14 09:34:25;;;;;;;30.48;16.58;;;6.70;99.90;;;;;;5134867;27;20118;-65
2022/01/14 09:36:51;;;;;;;27.50;14.65;;;6.80;99.90;;;;;;5120026;27;20116;-65
2022/01/14 09:39:17;;;;;;;27.38;14.07;;;6.70;99.90;;;;;;5104936;28;20248;-65
2022/01/14 09:41:43;;;;;;;24.02;13.63;;;6.80;99.90;;;;;;5113221;27;20062;-65
2022/01/14 09:44:08;;;;;;;25.92;15.10;;;6.90;99.90;;;;;;5125261;28;20040;-65
2022/01/14 09:46:34;;;;;;;24.52;13.90;;;6.80;99.90;;;;;;5112661;27;20566;-65
2022/01/14 09:49:00;;;;;;;28.83;13.93;;;6.80;99.90;;;;;;5127401;28;20044;-64
2022/01/14 09:51:26;;;;;;;21.05;14.02;;;7.00;99.90;;;;;;5107290;27;20736;-65
2022/01/14 09:53:52;;;;;;;23.25;13.43;;;6.90;99.90;;;;;;5130597;28;20040;-65
2022/01/14 09:56:20;;;;;;;23.67;12.75;;;7.00;99.90;;;;;;5110607;27;20042;-65
2022/01/14 09:58:48;;;;;;;23.25;13.27;;;6.90;99.90;;;;;;5134699;27;20121;-65
2022/01/14 10:01:17;;;;;;;28.85;13.48;;;6.90;99.90;;;;;;5111172;27;20617;-65
2022/01/14 10:03:56;;;;;;;20.48;11.35;;;7.00;99.90;;;;;;5136664;27;20466;-65
2022/01/14 10:06:51;;;;;;;21.63;11.48;;;7.10;99.90;;;;;;5112151;27;20040;-65
2022/01/14 10:09:24;;;;;;;19.80;11.40;;;7.10;99.90;;;;;;5131711;27;20044;-65
2022/01/14 10:12:05;;;;;;;24.95;9.55;;;7.10;99.90;;;;;;5142236;27;20040;-65
2022/01/14 10:14:31;;;;;;;22.48;9.95;;;7.20;99.90;;;;;;5144093;27;20081;-65
2022/01/14 10:17:00;;;;;;;20.90;10.02;;;7.10;99.90;;;;;;5115273;27;20077;-65
2022/01/14 10:19:28;;;;;;;21.20;10.05;;;7.10;99.90;;;;;;5133354;27;20047;-65
2022/01/14 10:21:55;;;;;;;23.15;10.57;;;7.20;99.90;;;;;;5109259;27;20054;-66
2022/01/14 10:24:24;;;;;;;22.00;9.98;;;7.20;99.90;;;;;;5137313;27;20046;-65
2022/01/14 10:27:01;;;;;;;19.67;9.32;;;7.10;99.90;;;;;;5119384;27;20059;-65
2022/01/14 10:29:32;;;;;;;19.33;10.00;;;7.20;99.90;;;;;;5137883;27;20270;-65
2022/01/14 10:32:00;;;;;;;20.95;9.40;;;7.20;99.90;;;;;;5121144;27;20486;-65
2022/01/14 10:34:26;;;;;;;14.25;8.40;;;7.20;99.90;;;;;;5130839;27;20040;-65
2022/01/14 10:37:12;;;;;;;19.13;8.07;;;7.20;99.90;;;;;;5119414;27;20473;-65
2022/01/14 10:39:48;;;;;;;23.30;8.63;;;7.20;99.90;;;;;;5128416;27;20051;-64
2022/01/14 10:42:25;;;;;;;18.65;9.00;;;7.20;99.90;;;;;;5127457;27;20057;-64
2022/01/14 10:44:52;;;;;;;17.50;7.28;;;7.30;99.90;;;;;;5137070;27;20047;-64
2022/01/14 10:47:22;;;;;;;17.35;8.63;;;7.20;99.90;;;;;;5114563;27;20056;-63
2022/01/14 10:49:50;;;;;;;19.02;8.05;;;7.30;99.90;;;;;;5126942;27;20356;-64
2022/01/14 10:52:21;;;;;;;17.10;8.07;;;7.30;99.90;;;;;;5120172;27;20385;-64
2022/01/14 10:54:55;;;;;;;19.13;7.40;;;7.20;99.90;;;;;;5137078;27;20047;-64
2022/01/14 10:57:29;;;;;;;17.52;7.40;;;7.20;99.90;;;;;;5120075;27;20047;-64
2022/01/14 11:00:12;;;;;;;17.80;6.93;;;7.30;99.90;;;;;;5135433;27;20081;-64
2022/01/14 11:02:42;;;;;;;16.75;7.22;;;7.20;99.90;;;;;;5130136;27;20051;-64
2022/01/14 11:05:12;;;;;;;15.73;7.13;;;7.20;99.90;;;;;;5131177;27;20070;-65
2022/01/14 11:07:39;;;;;;;26.17;8.60;;;7.20;99.90;;;;;;5121115;27;20050;-65
2022/01/14 11:10:27;;;;;;;14.32;6.80;;;7.20;99.90;;;;;;5120189;27;20148;-63
2022/01/14 11:12:54;;;;;;;16.00;7.40;;;7.30;99.90;;;;;;5140338;27;20258;-65
2022/01/14 11:15:23;;;;;;;14.50;7.18;;;7.30;99.90;;;;;;5113447;28;20126;-64
2022/01/14 11:17:52;;;;;;;17.58;6.93;;;7.30;99.90;;;;;;5145846;27;20050;-64
2022/01/14 11:20:28;;;;;;;14.88;7.50;;;7.20;99.90;;;;;;5118200;28;20634;-65
2022/01/14 11:25:50;;;;;;;14.85;6.50;;;7.30;99.90;;;;;;5120546;27;20456;-64
2022/01/14 11:28:24;;;;;;;19.67;7.07;;;7.20;99.90;;;;;;5137066;27;20612;-64
2022/01/14 11:30:49;;;;;;;12.23;7.10;;;7.30;99.90;;;;;;5115509;27;20062;-63
2022/01/14 11:33:16;;;;;;;18.83;7.38;;;7.30;99.90;;;;;;5139355;27;20681;-66
2022/01/14 11:35:54;;;;;;;16.52;7.45;;;7.30;99.90;;;;;;5109552;27;20047;-65
2022/01/14 11:38:38;;;;;;;14.98;6.45;;;7.30;99.90;;;;;;5079360;27;20047;-64
2022/01/14 11:41:05;;;;;;;14.40;6.82;;;7.30;99.90;;;;;;5101916;28;20043;-65
2022/01/14 11:43:45;;;;;;;21.88;7.32;;;7.30;99.90;;;;;;5107856;27;20147;-64
2022/01/14 11:46:16;;;;;;;16.95;7.13;;;7.30;99.90;;;;;;5112571;28;20385;-65
2022/01/14 11:48:49;;;;;;;13.50;6.35;;;7.20;99.90;;;;;;5105421;27;20051;-65
2022/01/14 11:51:18;;;;;;;20.85;7.07;;;7.30;99.90;;;;;;5124008;27;20077;-65
2022/01/14 11:54:04;;;;;;;14.60;6.70;;;7.30;99.90;;;;;;5089554;28;20119;-65
2022/01/14 11:56:30;;;;;;;18.73;6.65;;;7.30;99.90;;;;;;5116991;28;20071;-65
2022/01/14 11:59:18;;;;;;;18.60;6.80;;;7.30;99.90;;;;;;5104481;28;20052;-65
2022/01/14 12:01:55;;;;;;;17.65;6.75;;;7.30;99.90;;;;;;5086135;27;20040;-65
2022/01/14 12:04:22;;;;;;;15.90;7.25;;;7.30;99.90;;;;;;5127316;27;20051;-65
2022/01/14 12:06:51;;;;;;;18.20;7.00;;;7.40;99.90;;;;;;5107840;27;20051;-64
2022/01/14 12:09:19;;;;;;;26.42;7.75;;;7.40;99.90;;;;;;5128822;27;20352;-65
2022/01/14 12:12:05;;;;;;;16.35;7.15;;;7.40;99.90;;;;;;5109243;28;20043;-65
2022/01/14 12:14:37;;;;;;;13.05;5.78;;;7.40;99.90;;;;;;5131059;27;20044;-65
2022/01/14 12:17:12;;;;;;;18.90;6.25;;;7.40;99.90;;;;;;5075384;27;20075;-65
2022/01/14 12:19:38;;;;;;;14.82;6.47;;;7.40;99.90;;;;;;5124912;27;20047;-65
2022/01/14 12:22:04;;;;;;;18.73;7.25;;;7.40;99.90;;;;;;5072831;28;20079;-67
2022/01/14 12:24:32;;;;;;;17.55;5.75;;;7.30;99.90;;;;;;5128909;27;20047;-65
2022/01/14 12:27:00;;;;;;;19.98;6.90;;;7.40;99.90;;;;;;5091332;27;20472;-64
2022/01/14 12:29:37;;;;;;;14.18;5.97;;;7.40;99.90;;;;;;5107931;28;20047;-64
2022/01/14 12:32:03;;;;;;;18.77;6.75;;;7.50;99.90;;;;;;5092973;27;20047;-64
2022/01/14 12:34:55;;;;;;;15.63;6.28;;;7.50;99.90;;;;;;5112754;28;20075;-64
2022/01/14 12:37:26;;;;;;;18.15;6.30;;;7.50;99.90;;;;;;5105627;27;20043;-64
2022/01/14 12:39:53;;;;;;;16.83;6.32;;;7.50;99.90;;;;;;5114418;27;20048;-64
2022/01/14 12:42:20;;;;;;;21.98;8.05;;;7.40;99.90;;;;;;5105662;27;20051;-65
2022/01/14 12:44:47;;;;;;;15.65;5.68;;;7.50;99.90;;;;;;5110719;28;20378;-65
2022/01/14 12:47:20;;;;;;;15.45;6.38;;;7.40;99.90;;;;;;5120481;27;20058;-65
2022/01/14 12:49:48;;;;;;;11.40;5.85;;;7.40;99.90;;;;;;5113617;27;20380;-65
2022/01/14 12:52:37;;;;;;;13.70;5.80;;;7.40;99.90;;;;;;5123364;27;20047;-65
2022/01/14 12:55:06;;;;;;;16.43;5.10;;;7.40;99.90;;;;;;5118343;28;20039;-65
2022/01/14 12:57:31;;;;;;;14.20;4.88;;;7.40;99.90;;;;;;5095720;27;20289;-65
2022/01/14 12:59:57;;;;;;;18.33;5.70;;;7.40;99.90;;;;;;5125390;27;20066;-65
2022/01/14 13:02:28;;;;;;;16.25;6.72;;;7.40;99.90;;;;;;5121552;27;20086;-64
2022/01/14 13:05:06;;;;;;;15.32;6.22;;;7.40;99.90;;;;;;5098401;28;20052;-63
2022/01/14 13:07:33;;;;;;;21.60;6.70;;;7.40;99.90;;;;;;5093035;28;20104;-65
2022/01/14 13:10:00;;;;;;;17.42;4.90;;;7.40;99.90;;;;;;5104465;28;20050;-65
2022/01/14 13:12:32;;;;;;;12.52;4.35;;;7.40;99.90;;;;;;5123813;28;20081;-65
2022/01/14 13:15:01;;;;;;;13.23;5.32;;;7.50;99.90;;;;;;5093527;28;20134;-64
2022/01/14 13:17:33;;;;;;;11.80;5.95;;;7.50;99.90;;;;;;5112050;28;20035;-65